Time;durP1;ratioP1;P1;durP2;ratioP2;P2;SDS_P1;SDS_P2;PMS_P1;PMS_P2;Temp;Humidity;BMP_temperature;BMP_pressure;BME280_temperature;BME280_humidity;BME280_pressure;Samples;Min_cycle;Max_cycle;Signal;HPM_P1;HPM_P2
2021/08/07 00:03:00;;;;;;;2.47;1.57;;;;;;;14.27;85.31;98894.36;126982;1089;102817;-81
2021/08/07 00:05:48;;;;;;;2.03;1.33;;;;;;;14.25;85.37;98895.42;126791;1089;113940;-80
2021/08/07 00:08:36;;;;;;;;;;;;;;;14.23;85.49;98892.06;126985;1088;102878;-80
2021/08/07 00:11:23;;;;;;;2.27;1.67;;;;;;;14.25;85.40;98906.75;126931;1087;103310;-80
2021/08/07 00:14:11;;;;;;;1.90;1.80;;;;;;;14.24;85.30;98909.48;126937;1088;102917;-80
2021/08/07 00:17:00;;;;;;;2.93;2.10;;;;;;;14.25;85.49;98905.91;126910;1090;114589;-80
2021/08/07 00:19:47;;;;;;;2.37;1.83;;;;;;;14.25;85.01;98913.78;126940;1088;101416;-80
2021/08/07 00:22:35;;;;;;;;;;;;;;;14.20;85.01;98906.23;126942;1088;102796;-80
2021/08/07 00:25:22;;;;;;;1.90;1.60;;;;;;;14.16;85.27;98928.34;126927;1089;103303;-81
2021/08/07 00:28:10;;;;;;;2.87;2.00;;;;;;;14.11;84.95;98923.41;127026;1087;102782;-81
2021/08/07 00:30:58;;;;;;;;;;;;;;;14.11;85.34;98927.81;126881;1088;113931;-80
2021/08/07 00:33:47;;;;;;;2.47;2.10;;;;;;;14.04;85.17;98926.56;126929;1090;101406;-80
2021/08/07 00:36:35;;;;;;;3.50;2.07;;;;;;;13.96;85.18;98932.30;126723;1089;114085;-80
2021/08/07 00:39:23;;;;;;;2.10;1.90;;;;;;;13.96;85.29;98939.33;126941;1089;102856;-81
2021/08/07 00:42:11;;;;;;;2.10;1.87;;;;;;;13.95;84.95;98948.13;126880;1090;114096;-81
2021/08/07 00:45:00;;;;;;;2.63;1.97;;;;;;;13.90;85.08;98938.80;126987;1089;102927;-81
2021/08/07 00:47:49;;;;;;;2.37;2.03;;;;;;;13.89;85.04;98942.36;126915;1090;114060;-81
2021/08/07 00:50:39;;;;;;;3.50;2.23;;;;;;;13.83;85.01;98948.02;126984;1088;103121;-80
2021/08/07 00:53:26;;;;;;;3.63;2.30;;;;;;;13.81;85.09;98949.88;126903;1090;114006;-80
2021/08/07 00:56:22;;;;;;;3.87;1.73;;;;;;;13.80;85.09;98948.20;126950;1090;103469;-80
2021/08/07 00:59:17;;;;;;;2.70;1.70;;;;;;;13.75;84.95;98958.16;126909;1089;114261;-80
2021/08/07 01:02:26;;;;;;;3.13;1.80;;;;;;;13.72;85.13;98955.73;126982;1090;103353;-81
2021/08/07 01:05:27;;;;;;;3.50;2.07;;;;;;;13.69;85.12;98961.19;126838;1089;114146;-80
2021/08/07 01:08:18;;;;;;;3.73;2.37;;;;;;;13.68;85.27;98967.36;126947;1089;102941;-80
2021/08/07 01:11:19;;;;;;;4.33;1.70;;;;;;;13.67;85.02;98962.23;126856;1089;113207;-80
2021/08/07 01:14:10;;;;;;;2.80;1.90;;;;;;;13.68;84.86;98969.15;126902;1090;102953;-81
2021/08/07 01:17:00;;;;;;;3.83;1.90;;;;;;;13.63;84.73;98972.05;126971;1088;101157;-80
2021/08/07 01:20:02;;;;;;;6.37;1.83;;;;;;;13.66;84.92;98971.03;126945;1089;101207;-81
2021/08/07 01:23:15;;;;;;;2.90;1.97;;;;;;;13.64;84.66;98972.88;126989;1088;102890;-80
2021/08/07 01:26:27;;;;;;;2.90;1.90;;;;;;;13.62;84.60;98972.98;126876;1090;114139;-80
2021/08/07 01:29:32;;;;;;;2.80;1.90;;;;;;;13.63;84.57;98973.83;127038;1090;102856;-81
2021/08/07 01:32:29;;;;;;;2.57;1.73;;;;;;;13.61;84.39;98982.63;126766;1090;113913;-81
2021/08/07 01:35:17;;;;;;;2.47;1.60;;;;;;;13.65;84.47;98979.83;126977;1089;103036;-81
2021/08/07 01:38:10;;;;;;;3.33;1.80;;;;;;;13.70;84.55;98980.36;126811;1090;112874;-80
2021/08/07 01:41:26;;;;;;;2.88;1.85;;;;;;;13.61;84.16;98972.14;126953;1089;102962;-80
2021/08/07 01:44:25;;;;;;;2.23;1.90;;;;;;;13.57;84.16;98978.53;126920;1090;112863;-80
2021/08/07 01:48:00;;;;;;;1.97;1.77;;;;;;;13.60;84.24;98982.73;127016;1088;102927;-80
2021/08/07 01:51:11;;;;;;;2.90;1.70;;;;;;;13.59;84.20;98981.05;126493;1090;100830;-80
2021/08/07 01:54:02;;;;;;;2.77;1.83;;;;;;;13.56;84.23;98982.09;126696;1093;104740;-80
2021/08/07 01:56:55;;;;;;;1.90;1.70;;;;;;;13.56;84.19;98987.33;126627;1090;113859;-81
2021/08/07 01:59:46;;;;;;;5.23;1.90;;;;;;;13.54;83.97;98980.52;126741;1090;102965;-81
2021/08/07 02:02:34;;;;;;;8.53;2.10;;;;;;;13.54;84.21;98988.38;126668;1088;114173;-82
2021/08/07 02:05:24;;;;;;;3.37;1.93;;;;;;;13.54;83.95;98977.89;126735;1090;102896;-81
2021/08/07 02:08:15;;;;;;;3.03;2.00;;;;;;;13.56;84.01;98992.56;126589;1090;113966;-80
2021/08/07 02:11:11;;;;;;;4.03;2.30;;;;;;;13.58;84.15;98987.23;126776;1090;103328;-81
2021/08/07 02:14:01;;;;;;;2.63;2.00;;;;;;;13.54;83.95;98988.38;126661;1089;114186;-81
2021/08/07 02:16:51;;;;;;;2.10;1.80;;;;;;;13.52;84.13;98990.25;126702;1090;102911;-81
2021/08/07 02:19:42;;;;;;;5.20;2.10;;;;;;;13.52;84.25;98995.48;126612;1090;113920;-81
2021/08/07 02:22:33;;;;;;;5.10;2.13;;;;;;;13.56;84.15;98991.73;126750;1090;103006;-81
2021/08/07 02:25:22;;;;;;;3.80;2.00;;;;;;;13.58;84.02;99002.95;126655;1088;112829;-80
2021/08/07 02:28:23;;;;;;;3.50;1.60;;;;;;;13.58;83.92;99008.19;127002;1090;102847;-80
2021/08/07 02:31:14;;;;;;;5.70;2.20;;;;;;;13.58;83.82;99010.80;126907;1087;114121;-80
2021/08/07 02:34:04;;;;;;;4.23;2.20;;;;;;;13.59;83.90;99017.72;126943;1090;101655;-80
2021/08/07 02:36:55;;;;;;;3.83;2.30;;;;;;;13.61;83.95;99015.84;126894;1089;113008;-80
2021/08/07 02:39:47;;;;;;;5.83;2.10;;;;;;;13.61;83.74;99024.54;126907;1089;102847;-79
2021/08/07 02:42:37;;;;;;;2.93;2.10;;;;;;;13.59;83.60;99023.80;126903;1089;114528;-79
2021/08/07 02:45:27;;;;;;;2.77;2.00;;;;;;;13.61;83.37;99026.32;126999;1087;102721;-79
2021/08/07 02:48:16;;;;;;;4.87;2.13;;;;;;;13.62;83.81;99030.63;126961;1089;102899;-79
2021/08/07 02:51:04;;;;;;;6.07;2.40;;;;;;;13.67;83.82;99031.19;126961;1090;115227;-79
2021/08/07 02:53:59;;;;;;;2.97;2.53;;;;;;;13.67;83.64;99036.43;126961;1087;103171;-81
2021/08/07 02:56:49;;;;;;;3.73;2.20;;;;;;;13.66;83.40;99031.29;126824;1088;114208;-81
2021/08/07 02:59:37;;;;;;;4.73;2.30;;;;;;;13.65;83.39;99037.47;126921;1090;103397;-81
2021/08/07 03:02:26;;;;;;;6.03;2.13;;;;;;;13.63;83.55;99048.02;126779;1090;114121;-81
2021/08/07 03:05:15;;;;;;;6.10;2.10;;;;;;;13.64;83.60;99052.32;126903;1088;103001;-81
2021/08/07 03:08:06;;;;;;;4.03;2.83;;;;;;;13.65;83.55;99048.79;126835;1090;114150;-81
2021/08/07 03:10:56;;;;;;;5.30;2.40;;;;;;;13.64;83.44;99046.23;126835;1090;102924;-81
2021/08/07 03:13:45;;;;;;;4.90;2.50;;;;;;;13.63;83.44;99044.56;126770;1088;114016;-81
2021/08/07 03:16:35;;;;;;;4.00;2.07;;;;;;;13.62;83.47;99054.20;126868;1089;102872;-81
2021/08/07 03:19:25;;;;;;;3.97;2.20;;;;;;;13.67;83.46;99054.77;126818;1089;114033;-81
2021/08/07 03:22:17;;;;;;;4.10;2.03;;;;;;;13.69;83.34;99047.65;126866;1089;101584;-81
2021/08/07 03:25:05;;;;;;;2.37;1.90;;;;;;;13.68;83.06;99050.38;126856;1087;114249;-79
2021/08/07 03:27:54;;;;;;;6.23;2.43;;;;;;;13.65;83.19;99048.79;126875;1087;102997;-81
2021/08/07 03:30:43;;;;;;;3.57;2.20;;;;;;;13.68;83.02;99048.59;126589;1089;113125;-81
2021/08/07 03:33:31;;;;;;;6.27;2.20;;;;;;;13.70;82.82;99051.11;126830;1089;102971;-80
2021/08/07 03:36:19;;;;;;;4.07;2.10;;;;;;;13.73;82.86;99051.75;126919;1089;102964;-81
2021/08/07 03:39:12;;;;;;;4.03;2.20;;;;;;;13.73;82.77;99059.61;126622;1090;113904;-81
2021/08/07 03:42:02;;;;;;;5.10;1.97;;;;;;;13.75;82.85;99064.75;126877;1088;102895;-81
2021/08/07 03:44:51;;;;;;;2.70;1.90;;;;;;;13.77;82.83;99068.11;126729;1088;114079;-81
2021/08/07 03:47:50;;;;;;;3.97;2.00;;;;;;;13.82;82.74;99071.27;126845;1089;103781;-80
2021/08/07 03:50:42;;;;;;;2.73;2.07;;;;;;;13.84;82.78;99069.42;126750;1089;114157;-81
2021/08/07 03:53:32;;;;;;;3.87;2.40;;;;;;;13.89;82.27;99076.03;126870;1088;103007;-81
2021/08/07 03:56:20;;;;;;;4.67;2.83;;;;;;;13.95;82.27;99081.81;126791;1088;114122;-81
2021/08/07 03:59:09;;;;;;;4.97;2.13;;;;;;;13.96;82.19;99078.25;126809;1089;103214;-81
2021/08/07 04:01:58;;;;;;;3.50;2.30;;;;;;;14.00;82.23;99077.11;126781;1089;114240;-81
2021/08/07 04:04:46;;;;;;;4.43;2.50;;;;;;;14.01;81.87;99082.28;126870;1090;102904;-81
2021/08/07 04:07:36;;;;;;;5.33;2.47;;;;;;;14.01;81.96;99079.66;126660;1090;114127;-81
2021/08/07 04:10:25;;;;;;;8.63;2.43;;;;;;;14.07;82.06;99086.28;126861;1089;102921;-81
2021/08/07 04:13:13;;;;;;;2.83;2.20;;;;;;;14.13;81.88;99080.63;126718;1088;114154;-81
2021/08/07 04:16:01;;;;;;;4.80;2.43;;;;;;;14.18;81.38;99083.78;126855;1088;102862;-81
2021/08/07 04:18:50;;;;;;;4.63;2.40;;;;;;;14.22;81.53;99085.28;126888;1089;103084;-81
2021/08/07 04:21:39;;;;;;;5.43;2.60;;;;;;;14.32;81.26;99081.09;126860;1088;104505;-81
2021/08/07 04:24:27;;;;;;;4.00;2.40;;;;;;;14.39;81.10;99087.64;126848;1089;103306;-81
2021/08/07 04:27:17;;;;;;;4.77;2.37;;;;;;;14.40;80.53;99089.31;126640;1090;114133;-81
2021/08/07 04:30:08;;;;;;;5.35;2.50;;;;;;;14.43;80.76;99088.27;126820;1089;103020;-81
2021/08/07 04:32:56;;;;;;;5.77;2.23;;;;;;;14.49;80.42;99091.34;126752;1089;113923;-81
2021/08/07 04:35:44;;;;;;;8.67;2.83;;;;;;;14.55;80.29;99081.41;126771;1090;102926;-81
2021/08/07 04:38:37;;;;;;;3.57;2.30;;;;;;;14.65;80.05;99090.33;126798;1089;114272;-81
2021/08/07 04:41:25;;;;;;;2.93;2.23;;;;;;;14.69;79.35;99094.42;126699;1089;103074;-81
2021/08/07 04:44:13;;;;;;;5.03;2.50;;;;;;;14.72;79.43;99092.45;126618;1089;114121;-81
2021/08/07 04:47:03;;;;;;;4.07;2.27;;;;;;;14.74;79.28;99103.69;126740;1088;103131;-81
2021/08/07 04:49:50;;;;;;;2.87;2.20;;;;;;;14.75;78.84;99109.78;126733;1089;114082;-81
2021/08/07 04:52:39;;;;;;;5.15;2.75;;;;;;;14.83;78.83;99104.84;126850;1090;102876;-81
2021/08/07 04:55:28;;;;;;;3.20;2.40;;;;;;;14.92;78.64;99116.52;126741;1087;114089;-81
2021/08/07 04:58:16;;;;;;;5.80;2.60;;;;;;;14.95;78.31;99114.52;126752;1088;102890;-81
2021/08/07 05:01:04;;;;;;;3.53;2.20;;;;;;;15.04;77.92;99119.13;126682;1090;103023;-82
2021/08/07 05:03:54;;;;;;;3.37;2.27;;;;;;;15.18;77.56;99112.09;126757;1090;113853;-81
2021/08/07 05:06:44;;;;;;;;;;;;;;;15.28;77.28;99113.98;126855;1088;102848;-81
2021/08/07 05:09:33;;;;;;;3.40;2.13;;;;;;;15.37;76.70;99105.45;126684;1088;102940;-81
2021/08/07 05:12:44;;;;;;;3.53;2.33;;;;;;;15.52;76.71;99098.28;126843;1088;102868;-81
2021/08/07 05:15:32;;;;;;;4.27;2.13;;;;;;;15.91;76.22;99094.63;126586;1090;114176;-81
2021/08/07 05:18:21;;;;;;;3.47;2.40;;;;;;;16.40;75.38;99103.36;126865;1089;103055;-81
2021/08/07 05:21:09;;;;;;;5.00;2.40;;;;;;;18.00;75.06;99093.58;126747;1089;114072;-81
2021/08/07 05:23:59;;;;;;;3.97;2.20;;;;;;;20.78;71.64;99086.98;126815;1090;103028;-82
2021/08/07 05:26:47;;;;;;;3.37;2.20;;;;;;;23.21;66.93;99092.47;126662;1089;114141;-81
2021/08/07 05:29:35;;;;;;;3.80;2.00;;;;;;;25.35;63.07;99083.66;126755;1088;102946;-79
2021/08/07 05:32:25;;;;;;;3.33;1.70;;;;;;;27.16;59.53;99085.00;126791;1089;113980;-81
2021/08/07 05:35:13;;;;;;;6.53;2.07;;;;;;;28.61;56.33;99086.77;126809;1090;102902;-79
2021/08/07 05:38:01;;;;;;;4.93;2.03;;;;;;;29.81;53.70;99083.86;126653;1088;114210;-81
2021/08/07 05:40:51;;;;;;;2.50;1.60;;;;;;;31.01;50.88;99079.49;126863;1089;102863;-79
2021/08/07 05:43:39;;;;;;;2.80;1.70;;;;;;;32.35;48.29;99085.90;126698;1090;114257;-79
2021/08/07 05:46:27;;;;;;;3.37;1.87;;;;;;;33.28;46.35;99085.94;126714;1089;103042;-79
2021/08/07 05:49:16;;;;;;;2.47;1.60;;;;;;;34.17;43.69;99078.23;126887;1088;102866;-80
2021/08/07 05:52:05;;;;;;;3.60;1.80;;;;;;;34.73;42.67;99085.09;126622;1090;114667;-80
2021/08/07 05:54:54;;;;;;;4.07;1.33;;;;;;;35.28;39.94;99087.48;126863;1090;103058;-80
2021/08/07 05:57:44;;;;;;;2.40;1.60;;;;;;;35.96;39.40;99093.03;126765;1089;114210;-80
2021/08/07 06:00:34;;;;;;;3.60;1.63;;;;;;;36.50;37.79;99088.07;126898;1090;102851;-80
2021/08/07 06:03:23;;;;;;;2.63;1.50;;;;;;;36.98;36.67;99089.39;126780;1088;114007;-80
2021/08/07 06:06:14;;;;;;;5.00;1.50;;;;;;;37.36;35.47;99091.34;126834;1089;103018;-81
2021/08/07 06:09:04;;;;;;;3.23;1.50;;;;;;;37.53;34.55;99101.36;126725;1089;112816;-81
2021/08/07 06:11:52;;;;;;;2.10;1.43;;;;;;;37.88;33.96;99098.25;126906;1089;103019;-81
2021/08/07 06:14:41;;;;;;;2.07;1.30;;;;;;;38.14;32.67;99100.18;126756;1089;114034;-80
2021/08/07 06:17:29;;;;;;;2.83;1.30;;;;;;;38.42;31.64;99093.66;126852;1089;102898;-81
2021/08/07 06:20:18;;;;;;;3.93;1.70;;;;;;;38.47;31.31;99101.90;126759;1089;114248;-80
2021/08/07 06:23:09;;;;;;;5.30;1.47;;;;;;;38.55;30.72;99104.14;126884;1088;102839;-81
2021/08/07 06:25:58;;;;;;;3.63;1.43;;;;;;;38.89;29.80;99103.89;126758;1090;114272;-81
2021/08/07 06:28:47;;;;;;;2.90;1.27;;;;;;;39.07;29.69;99106.20;126895;1089;101684;-81
2021/08/07 06:31:35;;;;;;;2.00;1.20;;;;;;;38.95;28.62;99111.83;126843;1089;102844;-80
2021/08/07 06:34:23;;;;;;;3.70;1.30;;;;;;;39.02;27.85;99113.53;126766;1090;113892;-80
2021/08/07 06:37:12;;;;;;;2.90;1.10;;;;;;;39.31;28.67;99117.55;126925;1089;102848;-80
2021/08/07 06:40:00;;;;;;;2.40;1.00;;;;;;;39.34;27.89;99118.95;126764;1087;114065;-80
2021/08/07 06:42:48;;;;;;;2.33;1.33;;;;;;;39.49;27.29;99122.56;126958;1089;102863;-80
2021/08/07 06:46:05;;;;;;;2.98;1.00;;;;;;;39.32;26.68;99121.09;126776;1088;113919;-79
2021/08/07 06:48:55;;;;;;;3.57;1.40;;;;;;;39.29;26.51;99127.91;126887;1090;102951;-80
2021/08/07 06:51:43;;;;;;;2.93;1.20;;;;;;;39.49;26.11;99124.47;126844;1088;114575;-79
2021/08/07 06:54:39;;;;;;;3.27;1.40;;;;;;;39.50;26.29;99126.95;126711;1090;102857;-79
2021/08/07 06:57:36;;;;;;;1.70;1.00;;;;;;;39.67;25.48;99118.58;126872;1090;114001;-80
2021/08/07 07:00:24;;;;;;;2.47;1.20;;;;;;;39.63;25.64;99124.84;126951;1088;101139;-80
2021/08/07 07:03:12;;;;;;;3.57;1.50;;;;;;;39.85;25.36;99128.20;126849;1090;113282;-80
2021/08/07 07:06:01;;;;;;;2.10;1.13;;;;;;;40.12;24.99;99123.41;126852;1090;102778;-79
2021/08/07 07:08:49;;;;;;;5.45;1.30;;;;;;;39.96;24.34;99123.64;126706;1088;114082;-80
2021/08/07 07:11:37;;;;;;;2.73;1.30;;;;;;;40.09;23.19;99126.69;126919;1088;102859;-79
2021/08/07 07:14:25;;;;;;;2.33;1.30;;;;;;;40.00;23.71;99125.55;126952;1090;114293;-80
2021/08/07 07:17:16;;;;;;;3.57;1.23;;;;;;;39.99;22.49;99123.91;126727;1088;103058;-81
2021/08/07 07:20:07;;;;;;;1.47;1.00;;;;;;;39.75;23.53;99122.72;126816;1089;114068;-80
2021/08/07 07:22:56;;;;;;;3.07;1.07;;;;;;;39.78;23.35;99125.73;126966;1088;102940;-80
2021/08/07 07:25:45;;;;;;;1.63;1.20;;;;;;;39.67;23.28;99128.67;126994;1090;101836;-80
2021/08/07 07:28:33;;;;;;;1.50;1.20;;;;;;;39.66;23.18;99127.03;126787;1088;113675;-80
2021/08/07 07:31:23;;;;;;;3.97;1.20;;;;;;;39.46;23.52;99125.82;126886;1090;102873;-80
2021/08/07 07:34:11;;;;;;;2.30;1.07;;;;;;;39.79;23.14;99130.10;126841;1090;114086;-80
2021/08/07 07:36:58;;;;;;;2.15;1.10;;;;;;;39.75;22.29;99139.92;126974;1089;102910;-80
2021/08/07 07:39:46;;;;;;;1.77;0.80;;;;;;;39.78;21.75;99147.57;126822;1089;112930;-80
2021/08/07 07:42:35;;;;;;;3.33;1.10;;;;;;;39.53;22.37;99131.91;126966;1089;103032;-79
2021/08/07 07:45:24;;;;;;;2.93;1.07;;;;;;;39.78;22.23;99142.11;126862;1089;113083;-80
2021/08/07 07:48:12;;;;;;;1.90;0.97;;;;;;;39.68;21.84;99131.16;126862;1090;103685;-79
2021/08/07 07:51:00;;;;;;;4.80;1.07;;;;;;;39.65;22.27;99144.50;126811;1089;114010;-79
2021/08/07 07:53:48;;;;;;;3.93;1.10;;;;;;;39.39;22.11;99138.07;126995;1088;100437;-79
2021/08/07 07:56:36;;;;;;;1.90;1.10;;;;;;;38.97;21.26;99141.59;126877;1088;114139;-78
2021/08/07 07:59:24;;;;;;;3.50;1.10;;;;;;;38.73;22.18;99143.01;126879;1089;102889;-79
2021/08/07 08:02:12;;;;;;;5.97;1.20;;;;;;;38.59;22.01;99148.03;126831;1088;114298;-80
2021/08/07 08:05:01;;;;;;;3.53;1.20;;;;;;;38.43;22.08;99143.55;126871;1088;103310;-79
2021/08/07 08:07:48;;;;;;;2.80;1.10;;;;;;;38.31;22.22;99152.67;126865;1088;102927;-79
2021/08/07 08:10:38;;;;;;;1.23;1.00;;;;;;;38.44;22.51;99156.91;126691;1088;113772;-79
2021/08/07 08:13:29;;;;;;;4.80;1.37;;;;;;;38.76;22.37;99156.94;126870;1088;102886;-78
2021/08/07 08:16:17;;;;;;;1.73;1.20;;;;;;;38.88;22.21;99163.05;126685;1089;114111;-79
2021/08/07 08:19:07;;;;;;;1.40;1.10;;;;;;;38.74;21.77;99156.38;126792;1090;102886;-79
2021/08/07 08:21:55;;;;;;;3.47;1.33;;;;;;;38.65;21.81;99177.02;126584;1089;113998;-79
2021/08/07 08:24:48;;;;;;;4.23;1.23;;;;;;;38.24;21.90;99162.94;126813;1088;102846;-79
2021/08/07 08:27:36;;;;;;;4.30;1.33;;;;;;;37.86;21.86;99166.55;126751;1090;114127;-79
2021/08/07 08:30:26;;;;;;;3.63;1.47;;;;;;;37.69;22.21;99163.02;126757;1089;102903;-80
2021/08/07 08:33:15;;;;;;;2.50;1.47;;;;;;;37.83;22.36;99171.67;126875;1089;112846;-79
2021/08/07 08:36:05;;;;;;;5.00;1.40;;;;;;;37.96;22.49;99163.95;126640;1090;102846;-78
2021/08/07 08:38:53;;;;;;;1.93;1.17;;;;;;;38.01;22.80;99166.73;126633;1090;114256;-78
2021/08/07 08:41:41;;;;;;;1.60;1.30;;;;;;;37.88;22.51;99167.11;126701;1089;103001;-79
2021/08/07 08:44:29;;;;;;;1.93;1.30;;;;;;;37.87;22.79;99175.53;126519;1090;114111;-79
2021/08/07 08:47:20;;;;;;;1.80;1.20;;;;;;;37.64;22.33;99171.13;126633;1089;102871;-79
2021/08/07 08:50:09;;;;;;;2.57;1.30;;;;;;;37.49;23.35;99179.89;126627;1089;102877;-79
2021/08/07 08:53:01;;;;;;;2.13;1.40;;;;;;;37.45;22.91;99185.02;126535;1089;114016;-79
2021/08/07 08:55:55;;;;;;;3.10;1.33;;;;;;;37.16;22.65;99183.44;126756;1090;103342;-79
2021/08/07 08:58:45;;;;;;;1.83;1.33;;;;;;;36.75;23.76;99190.07;126495;1090;113913;-79
2021/08/07 09:01:33;;;;;;;5.07;1.63;;;;;;;36.67;23.30;99201.35;126878;1090;102946;-79
2021/08/07 09:04:23;;;;;;;3.27;1.50;;;;;;;36.48;23.53;99200.73;126852;1090;113933;-80
2021/08/07 09:07:36;;;;;;;7.13;1.47;;;;;;;36.51;24.27;99203.78;126895;1089;102880;-79
2021/08/07 09:10:24;;;;;;;4.10;1.50;;;;;;;36.40;23.95;99196.50;126780;1088;113957;-79
2021/08/07 09:13:22;;;;;;;1.90;1.43;;;;;;;36.13;24.41;99207.08;126812;1090;102893;-78
2021/08/07 09:16:11;;;;;;;3.27;1.50;;;;;;;35.92;23.65;99205.84;126640;1090;114125;-78
2021/08/07 09:18:59;;;;;;;4.77;1.80;;;;;;;35.66;24.46;99206.30;126728;1088;102925;-78
2021/08/07 09:22:17;;;;;;;1.73;1.60;;;;;;;35.80;25.20;99205.00;126660;1089;113959;-79
2021/08/07 09:25:16;;;;;;;2.03;1.53;;;;;;;35.74;24.83;99205.95;126566;1089;103026;-78
2021/08/07 09:28:06;;;;;;;5.33;1.80;;;;;;;35.73;23.90;99199.71;126561;1090;114265;-80
2021/08/07 09:30:54;;;;;;;6.10;1.73;;;;;;;35.46;24.64;99205.84;126773;1090;102893;-79
2021/08/07 09:33:43;;;;;;;1.63;1.53;;;;;;;35.24;24.35;99211.00;126667;1090;113855;-79
2021/08/07 09:36:48;;;;;;;3.27;1.77;;;;;;;35.01;25.13;99209.91;126793;1089;102866;-80
2021/08/07 09:39:45;;;;;;;5.70;1.70;;;;;;;34.96;25.65;99207.05;126506;1089;113081;-79
2021/08/07 09:42:54;;;;;;;2.97;1.33;;;;;;;35.01;25.03;99214.48;126819;1090;103546;-79
2021/08/07 09:45:42;;;;;;;3.87;1.70;;;;;;;34.73;25.21;99221.34;126678;1089;113298;-79
2021/08/07 09:48:32;;;;;;;3.20;1.70;;;;;;;34.40;25.72;99218.27;126856;1090;102917;-80
2021/08/07 09:51:20;;;;;;;1.93;1.60;;;;;;;34.08;25.47;99217.59;126689;1090;113207;-79
2021/08/07 09:54:15;;;;;;;3.53;1.70;;;;;;;33.96;25.98;99228.36;126771;1090;102860;-79
2021/08/07 09:57:10;;;;;;;4.10;1.80;;;;;;;33.99;26.04;99217.08;126725;1090;114108;-79
2021/08/07 09:59:58;;;;;;;3.83;1.53;;;;;;;34.02;25.97;99216.63;126677;1089;102894;-79
2021/08/07 10:02:46;;;;;;;2.80;1.77;;;;;;;34.07;26.38;99226.77;126672;1090;114321;-79
2021/08/07 10:05:35;;;;;;;5.23;1.63;;;;;;;34.15;26.19;99231.89;126752;1090;102888;-79
2021/08/07 10:08:23;;;;;;;2.13;1.60;;;;;;;34.25;26.91;99237.58;126786;1089;102866;-79
2021/08/07 10:11:12;;;;;;;1.70;1.40;;;;;;;34.26;26.09;99231.10;126515;1090;112737;-79
2021/08/07 10:14:04;;;;;;;2.73;1.60;;;;;;;34.37;26.83;99227.67;126831;1089;102868;-79
2021/08/07 10:17:05;;;;;;;2.40;1.73;;;;;;;34.46;25.75;99228.17;126699;1089;113666;-79
2021/08/07 10:19:54;;;;;;;1.80;1.70;;;;;;;34.34;26.68;99219.16;126748;1088;103042;-79
2021/08/07 10:22:45;;;;;;;1.80;1.60;;;;;;;34.22;26.40;99236.16;126657;1089;114120;-79
2021/08/07 10:25:34;;;;;;;2.20;1.80;;;;;;;34.10;26.39;99224.42;126762;1090;102860;-79
2021/08/07 10:28:26;;;;;;;2.43;1.60;;;;;;;33.98;26.98;99230.84;126705;1090;112877;-79
2021/08/07 10:31:20;;;;;;;1.87;1.67;;;;;;;33.95;26.61;99215.89;126799;1089;103312;-79
2021/08/07 10:34:09;;;;;;;3.50;2.10;;;;;;;33.19;27.31;99225.06;126713;1090;114045;-80
2021/08/07 10:36:58;;;;;;;2.00;1.73;;;;;;;32.70;27.60;99223.13;126813;1089;102887;-79
2021/08/07 10:39:47;;;;;;;2.73;1.73;;;;;;;32.55;28.36;99233.39;126799;1090;114051;-79
2021/08/07 10:42:37;;;;;;;2.13;1.80;;;;;;;32.35;27.86;99228.09;126773;1088;102910;-78
2021/08/07 10:45:27;;;;;;;3.83;1.77;;;;;;;31.65;28.31;99227.82;126676;1089;114114;-79
2021/08/07 10:48:38;;;;;;;2.43;1.70;;;;;;;31.07;29.23;99235.70;126740;1089;102878;-78
2021/08/07 10:51:34;;;;;;;5.10;2.00;;;;;;;30.97;29.71;99236.09;126623;1089;114277;-79
2021/08/07 10:54:33;;;;;;;2.30;1.70;;;;;;;30.95;30.44;99235.47;126624;1090;103023;-79
2021/08/07 10:57:44;;;;;;;2.10;1.90;;;;;;;30.98;30.47;99228.84;126597;1090;114281;-79
2021/08/07 11:00:32;;;;;;;2.40;1.73;;;;;;;31.01;30.31;99236.50;126734;1089;102985;-79
2021/08/07 11:03:20;;;;;;;2.73;1.97;;;;;;;30.73;30.71;99225.91;126746;1089;114311;-78
2021/08/07 11:06:08;;;;;;;3.73;2.20;;;;;;;30.67;31.17;99227.53;126734;1089;102888;-78
2021/08/07 11:09:25;;;;;;;2.07;1.87;;;;;;;30.47;31.46;99226.63;126544;1090;114148;-78
2021/08/07 11:12:18;;;;;;;2.00;1.80;;;;;;;30.10;31.73;99229.78;126739;1089;102859;-78
2021/08/07 11:15:09;;;;;;;2.33;2.10;;;;;;;30.04;32.22;99226.05;126698;1089;114107;-78
2021/08/07 11:17:57;;;;;;;2.93;2.27;;;;;;;29.85;32.25;99232.11;126679;1090;103506;-80
2021/08/07 11:20:44;;;;;;;4.03;2.40;;;;;;;29.77;32.70;99235.77;126716;1090;102901;-79
2021/08/07 11:23:37;;;;;;;2.63;2.43;;;;;;;29.59;33.48;99240.81;126832;1088;102888;-79
2021/08/07 11:26:51;;;;;;;2.67;2.47;;;;;;;29.19;33.74;99237.80;126833;1089;102835;-79
2021/08/07 11:30:40;;;;;;;3.97;2.57;;;;;;;28.95;33.98;99240.88;126783;1089;113896;-79
2021/08/07 11:33:31;;;;;;;5.00;3.00;;;;;;;28.22;34.72;99256.92;126304;1090;114159;-79
2021/08/07 11:36:19;;;;;;;2.95;2.65;;;;;;;28.08;35.21;99246.20;126465;1090;103265;-79
2021/08/07 11:39:06;;;;;;;4.67;2.60;;;;;;;27.94;36.00;99246.02;126440;1089;112843;-78
2021/08/07 11:41:54;;;;;;;3.73;3.00;;;;;;;27.77;36.51;99249.06;126547;1090;104619;-78
2021/08/07 11:44:42;;;;;;;3.40;3.10;;;;;;;27.47;36.88;99251.69;126480;1088;114119;-79
2021/08/07 11:47:32;;;;;;;4.50;3.50;;;;;;;27.15;37.34;99249.29;126582;1093;102855;-79
2021/08/07 11:50:21;;;;;;;3.37;3.07;;;;;;;26.88;38.03;99251.45;126497;1090;113948;-79
2021/08/07 11:53:14;;;;;;;4.37;3.33;;;;;;;26.74;38.45;99254.88;126610;1090;102881;-79
2021/08/07 11:56:07;;;;;;;5.40;3.40;;;;;;;26.83;39.01;99253.83;126615;1093;113022;-80
2021/08/07 11:59:01;;;;;;;4.23;3.40;;;;;;;27.06;38.99;99243.98;126527;1090;101907;-79
2021/08/07 12:01:48;;;;;;;5.10;3.70;;;;;;;27.40;38.42;99256.92;126409;1092;113165;-79
2021/08/07 12:04:36;;;;;;;3.53;3.20;;;;;;;27.64;38.24;99250.52;126500;1090;102936;-78
2021/08/07 12:07:24;;;;;;;3.23;2.93;;;;;;;27.78;37.89;99256.08;126534;1092;103066;-79
2021/08/07 12:10:14;;;;;;;4.50;3.27;;;;;;;27.86;38.16;99256.02;126737;1089;103323;-78
2021/08/07 12:13:02;;;;;;;3.07;2.77;;;;;;;28.00;38.00;99265.88;126856;1090;102860;-78
2021/08/07 12:15:54;;;;;;;3.60;3.17;;;;;;;28.11;38.01;99253.88;126720;1090;114085;-78
2021/08/07 12:18:59;;;;;;;4.73;3.47;;;;;;;28.09;37.59;99262.10;126799;1090;102970;-78
2021/08/07 12:21:49;;;;;;;2.57;2.37;;;;;;;28.06;36.85;99261.64;126671;1089;114710;-80
2021/08/07 12:24:36;;;;;;;4.23;2.40;;;;;;;28.11;37.41;99260.06;126888;1089;102923;-80
2021/08/07 12:27:24;;;;;;;2.87;2.67;;;;;;;27.92;37.28;99260.63;126797;1088;112863;-80
2021/08/07 12:30:13;;;;;;;3.53;2.60;;;;;;;27.61;37.56;99261.57;126926;1090;102887;-80
2021/08/07 12:33:16;;;;;;;3.37;2.60;;;;;;;27.52;37.73;99251.97;126724;1090;114000;-80
2021/08/07 12:36:22;;;;;;;2.50;2.30;;;;;;;27.42;37.87;99262.09;127017;1090;103063;-80
2021/08/07 12:39:10;;;;;;;2.40;2.20;;;;;;;27.20;38.08;99254.92;126823;1087;112780;-80
2021/08/07 12:41:58;;;;;;;3.33;2.30;;;;;;;27.12;38.37;99255.84;126701;1090;102863;-80
2021/08/07 12:45:09;;;;;;;3.83;2.40;;;;;;;27.02;38.87;99263.27;126890;1088;113212;-79
2021/08/07 12:47:58;;;;;;;2.77;2.50;;;;;;;26.75;38.80;99261.89;126925;1087;102859;-79
2021/08/07 12:50:58;;;;;;;2.93;2.23;;;;;;;26.66;39.43;99260.30;126794;1090;113933;-79
2021/08/07 12:53:46;;;;;;;2.33;2.13;;;;;;;26.83;39.49;99267.20;126958;1090;102611;-79
2021/08/07 12:56:44;;;;;;;2.23;2.03;;;;;;;26.92;39.50;99268.80;126722;1090;114388;-79
2021/08/07 12:59:47;;;;;;;1.80;1.70;;;;;;;26.75;39.46;99267.24;126889;1090;103024;-79
2021/08/07 13:02:35;;;;;;;3.17;2.00;;;;;;;26.53;39.37;99273.39;126627;1090;114157;-79
2021/08/07 13:05:34;;;;;;;2.63;2.00;;;;;;;26.41;39.86;99264.95;126894;1089;102855;-79
2021/08/07 13:08:32;;;;;;;3.67;2.13;;;;;;;26.58;39.96;99261.19;126727;1088;114188;-79
2021/08/07 13:11:23;;;;;;;2.25;1.70;;;;;;;26.71;40.17;99276.64;126874;1089;102847;-80
2021/08/07 13:14:14;;;;;;;2.00;1.90;;;;;;;26.89;39.69;99277.19;126578;1090;114206;-79